Mineral Springs, North Carolina
Current Conditions -  °F | °C
As of 1:53 AM on Sunday 23 Nov 2014 (Local Time) from KEQY Reporting Station
Overcast Overcast  
Wind Chill: 41°   Ceiling: 4900
Heat Index: 44°   Visibility: 10mi
Dew Point: 26°   Wind: 6mph
Humidity: 49%   Direction: 40°NE
Pressure: 30.26"   Gusts: NA
Location:  34.94°N, 80.67°W
Report Text: KEQY 230653Z AUTO 04005KT 10SM OVC049 07/M03 A3026 RMK AO2 SLP261 T00671033
Loading
Personal Weather Stations






























Interactive Weather Map New forecast layout! Learn more

10-Day Weather Forecast

Advertisements
Track Severe Weather on mobile